Terminal Aerodrome Forecast
Issued by NWS Grand Junction, CO

Home | Current Version | Previous Version | Text Only | Print | Product List | Glossary On
Versions: 1 2 3 4 5 6 7 8 9 10 11 12 13 14 15 16 17 18 19 20
000
FTUS45 KGJT 240539
TAFGJT
TAF
KGJT 240539Z 2406/2506 02006KT P6SM VCSH SCT060 OVC080
     FM240900 32007KT P6SM BKN070
     FM241200 36005KT P6SM SCT090
     FM242100 VRB04KT P6SM FEW250=

USA.gov is the U.S. government's official web portal to all federal, state and local government web resources and services.